createdAt,value
2017-05-03T00:00:12.295Z,7.00
2017-05-03T00:02:40.033Z,6.80
2017-05-03T00:05:07.057Z,6.70
2017-05-03T00:07:34.056Z,6.60
2017-05-03T00:10:01.119Z,6.50
2017-05-03T00:12:28.196Z,6.40
2017-05-03T00:14:55.271Z,6.30
2017-05-03T00:17:22.261Z,6.30
2017-05-03T00:19:49.285Z,6.40
2017-05-03T00:22:17.018Z,6.30
2017-05-03T00:24:44.031Z,6.20
2017-05-03T00:27:11.059Z,6.10
2017-05-03T00:29:38.066Z,6.10
2017-05-03T00:32:05.081Z,6.10
2017-05-03T00:34:32.088Z,6.10
2017-05-03T00:36:59.858Z,6.00
2017-05-03T00:39:26.863Z,6.10
2017-05-03T00:41:53.894Z,6.20
2017-05-03T00:44:20.956Z,6.10
2017-05-03T00:46:47.972Z,6.00
2017-05-03T00:49:14.975Z,6.00
2017-05-03T00:51:42.750Z,5.90
2017-05-03T00:54:09.782Z,5.90
2017-05-03T00:56:37.577Z,6.00
2017-05-03T00:59:04.546Z,6.00
2017-05-03T01:01:31.539Z,6.00
2017-05-03T01:03:59.317Z,6.00
2017-05-03T01:06:26.319Z,6.10
2017-05-03T01:08:53.334Z,6.10
2017-05-03T01:11:20.396Z,6.10
2017-05-03T01:13:47.420Z,6.00
2017-05-03T01:16:14.450Z,5.90
2017-05-03T01:18:41.442Z,5.90
2017-05-03T01:21:08.475Z,5.80
2017-05-03T01:23:35.579Z,5.80
2017-05-03T01:26:03.375Z,5.90
2017-05-03T01:28:30.429Z,5.80
2017-05-03T01:30:57.448Z,5.90
2017-05-03T01:33:24.488Z,5.90
2017-05-03T01:35:52.276Z,5.80
2017-05-03T01:38:19.308Z,5.80
2017-05-03T01:40:46.295Z,5.80
2017-05-03T01:43:13.301Z,5.80
2017-05-03T01:45:40.354Z,5.80
2017-05-03T01:48:07.378Z,5.70
2017-05-03T01:50:34.469Z,5.80
2017-05-03T01:53:01.501Z,5.70
2017-05-03T01:55:28.495Z,5.70
2017-05-03T01:57:55.540Z,5.70
2017-05-03T02:00:22.549Z,5.70
2017-05-03T02:02:49.554Z,5.80
2017-05-03T02:05:16.562Z,5.90
2017-05-03T02:07:43.600Z,5.90
2017-05-03T02:10:10.673Z,5.90
2017-05-03T02:12:37.737Z,5.90
2017-05-03T02:15:04.789Z,5.70
2017-05-03T02:17:31.796Z,5.70
2017-05-03T02:19:58.835Z,5.70
2017-05-03T02:22:25.843Z,5.60
2017-05-03T02:24:53.578Z,5.60
2017-05-03T02:27:20.602Z,5.60
2017-05-03T02:29:47.647Z,5.60
2017-05-03T02:32:14.717Z,5.70
2017-05-03T02:34:41.731Z,5.70
2017-05-03T02:37:08.748Z,5.80
2017-05-03T02:39:35.854Z,5.80
2017-05-03T02:42:02.852Z,5.80
2017-05-03T02:44:29.840Z,5.80
2017-05-03T02:46:56.869Z,5.90
2017-05-03T02:49:23.860Z,6.00
2017-05-03T02:51:50.835Z,6.10
2017-05-03T02:54:17.878Z,6.20
2017-05-03T02:56:44.901Z,6.20
2017-05-03T02:59:12.712Z,6.20
2017-05-03T03:01:39.721Z,6.30
2017-05-03T03:04:07.478Z,6.30
2017-05-03T03:06:35.264Z,6.20
2017-05-03T03:09:02.315Z,6.30
2017-05-03T03:11:29.321Z,6.30
2017-05-03T03:13:56.342Z,6.30
2017-05-03T03:16:23.352Z,6.30
2017-05-03T03:18:50.359Z,6.20
2017-05-03T03:21:17.516Z,6.20
2017-05-03T03:23:44.617Z,6.30
2017-05-03T03:26:11.613Z,6.30
2017-05-03T03:28:38.677Z,6.30
2017-05-03T03:31:06.446Z,6.20
2017-05-03T03:33:33.447Z,6.30
2017-05-03T03:36:00.484Z,6.20
2017-05-03T03:38:27.545Z,6.30
2017-05-03T03:40:54.529Z,6.20
2017-05-03T03:43:22.305Z,6.10
2017-05-03T03:45:49.284Z,6.20
2017-05-03T03:48:16.269Z,6.20
2017-05-03T03:50:44.049Z,6.30
2017-05-03T03:53:11.044Z,6.30
2017-05-03T03:55:38.074Z,6.40
2017-05-03T03:58:05.102Z,6.20
2017-05-03T04:00:32.118Z,6.20
2017-05-03T04:02:59.893Z,6.20
2017-05-03T04:05:27.687Z,6.10
2017-05-03T04:07:54.703Z,6.10
2017-05-03T04:10:22.449Z,5.80
2017-05-03T04:12:49.493Z,5.70
2017-05-03T04:15:16.474Z,5.70
2017-05-03T04:17:43.473Z,5.60
2017-05-03T04:20:10.492Z,5.50
2017-05-03T04:22:37.504Z,5.60
2017-05-03T04:25:04.528Z,5.80
2017-05-03T04:27:31.531Z,5.90
2017-05-03T04:29:58.611Z,6.00
2017-05-03T04:32:25.624Z,6.10
2017-05-03T04:34:52.628Z,6.10
2017-05-03T04:37:20.381Z,6.20
2017-05-03T04:39:48.143Z,6.30
2017-05-03T04:42:15.163Z,6.30
2017-05-03T04:44:42.227Z,6.20
2017-05-03T04:47:09.271Z,5.80
2017-05-03T04:49:36.256Z,5.70
2017-05-03T04:52:03.263Z,5.70
2017-05-03T04:54:30.323Z,5.70
2017-05-03T04:56:57.317Z,5.90
2017-05-03T04:59:24.352Z,6.00
2017-05-03T05:01:51.387Z,6.10
2017-05-03T05:04:18.427Z,6.10
2017-05-03T05:06:46.204Z,6.20
2017-05-03T05:09:13.229Z,6.20
2017-05-03T05:11:40.280Z,6.30
2017-05-03T05:14:08.081Z,6.30
2017-05-03T05:16:35.135Z,6.40
2017-05-03T05:19:02.174Z,6.50
2017-05-03T05:21:29.232Z,6.50
2017-05-03T05:23:56.261Z,6.60
2017-05-03T05:26:23.276Z,6.50
2017-05-03T05:28:51.088Z,6.50
2017-05-03T05:31:18.115Z,6.40
2017-05-03T05:33:45.149Z,6.20
2017-05-03T05:36:12.920Z,6.00
2017-05-03T05:38:39.916Z,5.90
2017-05-03T05:41:06.970Z,6.00
2017-05-03T05:43:33.977Z,6.10
2017-05-03T05:46:00.992Z,6.20
2017-05-03T05:48:28.769Z,6.30
2017-05-03T05:50:55.787Z,6.40
2017-05-03T05:53:22.774Z,6.60
2017-05-03T05:55:49.819Z,6.60
2017-05-03T05:58:16.831Z,6.70
2017-05-03T06:00:44.563Z,6.70
2017-05-03T06:03:11.643Z,6.80
2017-05-03T06:05:39.401Z,6.80
2017-05-03T06:08:06.459Z,6.90
2017-05-03T06:10:34.230Z,6.90
2017-05-03T06:13:01.960Z,6.90
2017-05-03T06:15:29.004Z,6.90
2017-05-03T06:17:56.015Z,7.00
2017-05-03T06:20:23.082Z,6.90
2017-05-03T06:22:50.150Z,6.80
2017-05-03T06:25:17.170Z,6.80
2017-05-03T06:27:44.181Z,6.90
2017-05-03T06:30:11.213Z,6.90
2017-05-03T06:32:38.942Z,6.90
2017-05-03T06:35:06.029Z,7.00
2017-05-03T06:37:33.769Z,7.10
2017-05-03T06:40:00.754Z,7.00
2017-05-03T06:42:27.800Z,7.00
2017-05-03T06:44:54.800Z,6.90
2017-05-03T06:47:21.862Z,7.10
2017-05-03T06:49:48.871Z,7.10
2017-05-03T06:52:15.889Z,7.10
2017-05-03T06:54:42.942Z,7.10
2017-05-03T06:57:09.970Z,7.30
2017-05-03T06:59:37.708Z,7.20
2017-05-03T07:02:04.733Z,7.00
2017-05-03T07:04:31.789Z,6.80
2017-05-03T07:06:58.831Z,7.00
2017-05-03T07:09:25.856Z,7.00
2017-05-03T07:11:52.873Z,7.20
2017-05-03T07:14:19.964Z,7.20
2017-05-03T07:16:46.952Z,7.40
2017-05-03T07:19:14.748Z,7.40
2017-05-03T07:21:41.789Z,7.50
2017-05-03T07:24:08.798Z,7.60
2017-05-03T07:26:35.838Z,7.70
2017-05-03T07:29:02.843Z,8.00
2017-05-03T07:31:29.893Z,7.70
2017-05-03T07:33:56.962Z,7.70
2017-05-03T07:36:23.980Z,8.00
2017-05-03T07:38:51.131Z,8.00
2017-05-03T07:41:18.189Z,7.70
2017-05-03T07:43:45.211Z,7.80
2017-05-03T07:46:12.205Z,8.10
2017-05-03T07:48:39.247Z,8.50
2017-05-03T07:51:06.271Z,8.90
2017-05-03T07:53:33.298Z,9.10
2017-05-03T07:56:00.277Z,9.10
2017-05-03T07:58:27.261Z,9.30
2017-05-03T08:00:55.087Z,9.00
2017-05-03T08:03:22.101Z,9.10
2017-05-03T08:05:49.151Z,9.20
2017-05-03T08:08:16.127Z,9.30
2017-05-03T08:10:43.116Z,9.50
2017-05-03T08:13:10.870Z,9.40
2017-05-03T08:15:38.646Z,9.40
2017-05-03T08:18:06.369Z,9.20
2017-05-03T08:20:33.400Z,9.20
2017-05-03T08:23:00.525Z,9.20
2017-05-03T08:25:27.542Z,9.10
2017-05-03T08:27:55.287Z,9.00
2017-05-03T08:30:22.418Z,9.00
2017-05-03T08:32:49.553Z,9.10
2017-05-03T08:35:16.561Z,9.10
2017-05-03T08:37:44.325Z,9.10
2017-05-03T08:40:12.083Z,9.10
2017-05-03T08:42:39.143Z,9.20
2017-05-03T08:45:06.178Z,9.30
2017-05-03T08:47:33.916Z,9.20
2017-05-03T08:50:00.968Z,9.10
2017-05-03T08:52:27.971Z,9.20
2017-05-03T08:54:55.020Z,9.30
2017-05-03T08:57:22.033Z,9.50
2017-05-03T08:59:49.848Z,9.50
2017-05-03T09:02:16.860Z,9.60
2017-05-03T09:04:43.867Z,9.70
2017-05-03T09:07:10.865Z,9.70
2017-05-03T09:09:37.858Z,9.80
2017-05-03T09:12:04.953Z,9.90
2017-05-03T09:14:31.955Z,10.00
2017-05-03T09:16:58.980Z,10.10
2017-05-03T09:19:26.785Z,10.10
2017-05-03T09:21:53.792Z,10.10
2017-05-03T09:24:20.796Z,10.10
2017-05-03T09:26:47.919Z,10.00
2017-05-03T09:29:15.705Z,10.10
2017-05-03T09:31:42.815Z,10.00
2017-05-03T09:34:09.847Z,10.00
2017-05-03T09:36:37.216Z,10.10
2017-05-03T09:39:04.228Z,10.20
2017-05-03T09:41:31.232Z,10.20
2017-05-03T09:43:59.835Z,10.30
2017-05-03T09:46:26.863Z,10.40
2017-05-03T09:48:54.619Z,10.50
2017-05-03T09:51:21.672Z,10.60
2017-05-03T09:53:48.700Z,10.70
2017-05-03T09:56:15.722Z,10.70
2017-05-03T09:58:42.756Z,10.80
2017-05-03T10:01:09.787Z,11.00
2017-05-03T10:03:36.858Z,11.10
2017-05-03T10:06:03.864Z,11.10
2017-05-03T10:08:30.877Z,11.20
2017-05-03T10:10:57.898Z,11.10
2017-05-03T10:13:24.907Z,11.00
2017-05-03T10:15:51.936Z,11.10
2017-05-03T10:18:19.783Z,11.10
2017-05-03T10:20:46.808Z,11.30
2017-05-03T10:23:13.806Z,11.20
2017-05-03T10:25:40.832Z,11.10
2017-05-03T10:28:07.912Z,11.20
2017-05-03T10:30:34.963Z,11.10
2017-05-03T10:33:02.005Z,10.80
2017-05-03T10:35:29.022Z,10.80
2017-05-03T10:37:56.123Z,10.90
2017-05-03T10:40:23.173Z,11.10
2017-05-03T10:42:50.186Z,11.10
2017-05-03T10:45:17.330Z,10.90
2017-05-03T10:47:45.072Z,10.90
2017-05-03T10:50:12.120Z,10.90
2017-05-03T10:52:39.161Z,10.80
2017-05-03T10:55:06.224Z,11.00
2017-05-03T10:57:33.963Z,11.00
2017-05-03T11:00:01.120Z,11.00
2017-05-03T11:02:28.126Z,11.10
2017-05-03T11:04:55.138Z,11.10
2017-05-03T11:07:22.898Z,10.90
2017-05-03T11:09:50.708Z,10.90
2017-05-03T11:12:17.756Z,10.90
2017-05-03T11:14:44.872Z,11.10
2017-05-03T11:17:11.900Z,11.10
2017-05-03T11:19:39.665Z,11.10
2017-05-03T11:22:07.448Z,11.00
2017-05-03T11:24:34.455Z,10.70
2017-05-03T11:27:01.461Z,10.60
2017-05-03T11:29:28.537Z,10.70
2017-05-03T11:31:55.540Z,10.70
2017-05-03T11:34:22.529Z,10.70
2017-05-03T11:36:49.545Z,10.80
2017-05-03T11:39:16.558Z,10.80
2017-05-03T11:41:44.346Z,10.90
2017-05-03T11:44:11.375Z,10.90
2017-05-03T11:46:38.960Z,10.70
2017-05-03T11:49:05.979Z,10.60
2017-05-03T11:51:33.744Z,10.30
2017-05-03T11:54:00.789Z,10.40
2017-05-03T11:56:28.613Z,10.70
2017-05-03T11:58:55.644Z,10.80
2017-05-03T12:01:22.643Z,11.00
2017-05-03T12:03:50.439Z,10.80
2017-05-03T12:06:17.500Z,10.80
2017-05-03T12:08:45.058Z,11.10
2017-05-03T12:11:12.049Z,11.20
2017-05-03T12:13:39.124Z,11.50
2017-05-03T12:16:06.119Z,11.80
2017-05-03T12:18:33.119Z,11.80
2017-05-03T12:21:00.170Z,11.40
2017-05-03T12:23:27.185Z,11.30
2017-05-03T12:25:54.188Z,11.60
2017-05-03T12:28:21.336Z,11.30
2017-05-03T12:30:48.489Z,11.80
2017-05-03T12:33:15.496Z,12.10
2017-05-03T12:35:43.251Z,12.00
2017-05-03T12:38:11.065Z,11.30
2017-05-03T12:40:38.070Z,11.40
2017-05-03T12:43:05.185Z,11.50
2017-05-03T12:45:32.171Z,11.30
2017-05-03T12:47:59.177Z,11.30
2017-05-03T12:50:26.208Z,11.40
2017-05-03T12:52:53.230Z,11.70
2017-05-03T12:55:20.276Z,11.20
2017-05-03T12:57:47.292Z,11.10
2017-05-03T13:00:14.280Z,11.30
2017-05-03T13:02:41.357Z,10.80
2017-05-03T13:05:08.373Z,11.20
2017-05-03T13:07:35.483Z,11.50
2017-05-03T13:10:03.257Z,11.60
2017-05-03T13:12:30.323Z,11.90
2017-05-03T13:14:57.308Z,12.00
2017-05-03T13:17:24.305Z,12.30
2017-05-03T13:19:51.368Z,12.50
2017-05-03T13:22:18.408Z,12.60
2017-05-03T13:24:45.421Z,12.70
2017-05-03T13:27:13.320Z,12.70
2017-05-03T13:29:40.308Z,12.80
2017-05-03T13:32:07.286Z,12.60
2017-05-03T13:34:35.038Z,12.50
2017-05-03T13:37:02.778Z,12.40
2017-05-03T13:39:29.827Z,12.30
2017-05-03T13:41:56.835Z,12.30
2017-05-03T13:44:23.853Z,12.10
2017-05-03T13:46:51.620Z,12.30
2017-05-03T13:49:19.368Z,12.40
2017-05-03T13:51:47.126Z,12.50
2017-05-03T13:54:14.883Z,12.20
2017-05-03T13:56:41.891Z,12.10
2017-05-03T13:59:08.882Z,12.30
2017-05-03T14:01:35.947Z,12.50
2017-05-03T14:04:03.066Z,12.50
2017-05-03T14:06:30.075Z,12.50
2017-05-03T14:08:57.132Z,12.50
2017-05-03T14:11:24.182Z,12.40
2017-05-03T14:13:51.188Z,12.40
2017-05-03T14:16:18.944Z,12.40
2017-05-03T14:18:45.997Z,12.40
2017-05-03T14:21:13.797Z,12.30
2017-05-03T14:23:40.792Z,12.30
2017-05-03T14:26:08.596Z,12.40
2017-05-03T14:28:35.626Z,12.40
2017-05-03T14:31:02.611Z,12.20
2017-05-03T14:33:29.670Z,12.10
2017-05-03T14:35:56.675Z,12.10
2017-05-03T14:38:23.703Z,12.10
2017-05-03T14:40:50.755Z,12.00
2017-05-03T14:43:17.774Z,11.70
2017-05-03T14:45:44.842Z,12.00
2017-05-03T14:48:12.587Z,11.80
2017-05-03T14:50:39.627Z,11.90
2017-05-03T14:53:06.682Z,12.10
2017-05-03T14:55:33.745Z,12.20
2017-05-03T14:58:01.506Z,12.30
2017-05-03T15:00:29.295Z,12.40
2017-05-03T15:02:56.427Z,12.60
2017-05-03T15:05:23.566Z,12.50
2017-05-03T15:07:50.676Z,12.30
2017-05-03T15:10:17.727Z,12.40
2017-05-03T15:12:44.761Z,12.20
2017-05-03T15:15:11.765Z,12.10
2017-05-03T15:17:40.553Z,12.10
2017-05-03T15:20:08.024Z,12.10
2017-05-03T15:22:35.064Z,12.30
2017-05-03T15:25:02.133Z,12.10
2017-05-03T15:27:29.120Z,12.20
2017-05-03T15:29:56.164Z,12.30
2017-05-03T15:32:23.196Z,12.30
2017-05-03T15:34:50.568Z,12.40
2017-05-03T15:37:17.622Z,12.40
2017-05-03T15:39:44.625Z,12.20
2017-05-03T15:42:11.850Z,12.30
2017-05-03T15:44:38.900Z,12.20
2017-05-03T15:47:05.902Z,12.20
2017-05-03T15:49:32.891Z,12.20
2017-05-03T15:51:59.934Z,12.20
2017-05-03T15:54:26.948Z,12.20
2017-05-03T15:56:54.029Z,12.20
2017-05-03T15:59:21.038Z,12.10
2017-05-03T16:01:48.074Z,11.70
2017-05-03T16:04:15.105Z,12.00
2017-05-03T16:06:42.999Z,12.10
2017-05-03T16:09:10.020Z,12.10
2017-05-03T16:11:37.056Z,12.20
2017-05-03T16:14:04.096Z,12.40
2017-05-03T16:16:31.144Z,12.50
2017-05-03T16:18:58.217Z,12.20
2017-05-03T16:21:25.221Z,12.00
2017-05-03T16:23:52.226Z,12.00
2017-05-03T16:26:19.280Z,11.90
2017-05-03T16:28:46.281Z,11.80
2017-05-03T16:31:13.338Z,11.80
2017-05-03T16:33:40.481Z,11.90
2017-05-03T16:36:07.491Z,11.70
2017-05-03T16:38:35.248Z,11.80
2017-05-03T16:41:03.050Z,11.70
2017-05-03T16:43:30.063Z,11.80
2017-05-03T16:45:57.083Z,11.80
2017-05-03T16:48:24.131Z,11.80
2017-05-03T16:50:51.248Z,11.70
2017-05-03T16:53:18.308Z,11.70
2017-05-03T16:55:45.343Z,11.70
2017-05-03T16:58:12.450Z,11.70
2017-05-03T17:00:40.222Z,11.60
2017-05-03T17:03:08.065Z,11.40
2017-05-03T17:05:35.066Z,11.40
2017-05-03T17:08:02.131Z,11.40
2017-05-03T17:10:29.257Z,11.30
2017-05-03T17:12:56.293Z,10.90
2017-05-03T17:15:23.294Z,10.70
2017-05-03T17:17:50.330Z,10.70
2017-05-03T17:20:17.401Z,10.80
2017-05-03T17:22:45.171Z,10.80
2017-05-03T17:25:12.929Z,10.80
2017-05-03T17:27:40.761Z,10.70
2017-05-03T17:30:07.765Z,10.70
2017-05-03T17:32:34.796Z,10.70
2017-05-03T17:35:01.830Z,10.60
2017-05-03T17:37:28.856Z,10.50
2017-05-03T17:39:56.666Z,10.50
2017-05-03T17:42:23.777Z,10.60
2017-05-03T17:44:50.786Z,10.60
2017-05-03T17:47:17.899Z,10.40
2017-05-03T17:49:45.685Z,10.40
2017-05-03T17:52:12.745Z,10.40
2017-05-03T17:54:39.828Z,10.30
2017-05-03T17:57:07.611Z,10.20
2017-05-03T17:59:35.416Z,10.10
2017-05-03T18:02:02.475Z,10.20
2017-05-03T18:04:29.524Z,10.20
2017-05-03T18:06:56.510Z,10.30
2017-05-03T18:09:23.530Z,10.30
2017-05-03T18:11:50.534Z,10.20
2017-05-03T18:14:17.558Z,10.20
2017-05-03T18:16:45.367Z,10.20
2017-05-03T18:19:12.485Z,10.10
2017-05-03T18:21:40.264Z,10.10
2017-05-03T18:24:07.345Z,10.00
2017-05-03T18:26:34.347Z,9.90
2017-05-03T18:29:01.379Z,9.90
2017-05-03T18:31:28.431Z,9.90
2017-05-03T18:33:56.184Z,9.80
2017-05-03T18:36:24.067Z,9.80
2017-05-03T18:38:51.873Z,9.80
2017-05-03T18:41:18.918Z,9.80
2017-05-03T18:43:45.994Z,9.70
2017-05-03T18:46:13.107Z,9.70
2017-05-03T18:48:40.192Z,9.60
2017-05-03T18:51:07.221Z,9.60
2017-05-03T18:53:34.279Z,9.40
2017-05-03T18:56:01.380Z,9.20
2017-05-03T18:58:28.425Z,9.10
2017-05-03T19:00:55.419Z,9.10
2017-05-03T19:03:22.458Z,9.10
2017-05-03T19:05:49.520Z,9.10
2017-05-03T19:08:16.565Z,9.20
2017-05-03T19:10:43.595Z,9.20
2017-05-03T19:13:10.651Z,9.10
2017-05-03T19:15:37.699Z,9.10
2017-05-03T19:18:04.750Z,8.90
2017-05-03T19:20:32.719Z,8.50
2017-05-03T19:22:59.783Z,8.40
2017-05-03T19:25:26.882Z,8.20
2017-05-03T19:27:53.924Z,8.30
2017-05-03T19:30:25.750Z,8.30
2017-05-03T19:32:53.494Z,8.40
2017-05-03T19:35:26.248Z,8.50
2017-05-03T19:37:53.323Z,8.50
2017-05-03T19:40:23.747Z,8.60
2017-05-03T19:42:50.747Z,8.60
2017-05-03T19:45:17.839Z,8.40
2017-05-03T19:47:45.801Z,8.00
2017-05-03T19:50:12.818Z,7.70
2017-05-03T19:52:39.852Z,7.50
2017-05-03T19:55:06.901Z,7.70
2017-05-03T19:57:33.905Z,7.80
2017-05-03T20:00:01.674Z,7.90
2017-05-03T20:02:29.439Z,7.80
2017-05-03T20:04:57.228Z,7.90
2017-05-03T20:07:24.335Z,8.00
2017-05-03T20:09:51.370Z,8.20
2017-05-03T20:12:18.403Z,8.10
2017-05-03T20:14:45.438Z,8.10
2017-05-03T20:17:18.551Z,8.10
2017-05-03T20:19:45.595Z,8.10
2017-05-03T20:22:12.596Z,8.20
2017-05-03T20:24:39.638Z,8.30
2017-05-03T20:27:06.765Z,8.30
2017-05-03T20:29:33.794Z,8.30
2017-05-03T20:32:00.844Z,8.40
2017-05-03T20:34:27.860Z,8.30
2017-05-03T20:36:54.879Z,8.30
2017-05-03T20:39:21.970Z,8.10
2017-05-03T20:41:48.989Z,8.10
2017-05-03T20:44:16.181Z,8.10
2017-05-03T20:46:43.265Z,8.00
2017-05-03T20:49:11.671Z,8.00
2017-05-03T20:51:39.268Z,8.10
2017-05-03T20:54:06.317Z,8.20
2017-05-03T20:56:33.328Z,8.20
2017-05-03T20:59:00.351Z,8.00
2017-05-03T21:01:27.408Z,8.00
2017-05-03T21:03:54.437Z,7.80
2017-05-03T21:06:21.440Z,7.60
2017-05-03T21:08:48.498Z,7.80
2017-05-03T21:11:15.502Z,7.90
2017-05-03T21:13:42.507Z,8.00
2017-05-03T21:16:10.289Z,7.70
2017-05-03T21:18:37.325Z,7.70
2017-05-03T21:21:05.163Z,7.60
2017-05-03T21:23:32.162Z,7.60
2017-05-03T21:25:59.220Z,7.60
2017-05-03T21:28:26.221Z,7.60
2017-05-03T21:30:53.974Z,7.50
2017-05-03T21:33:21.016Z,7.60
2017-05-03T21:35:48.027Z,7.70
2017-05-03T21:38:15.021Z,7.80
2017-05-03T21:40:42.045Z,8.00
2017-05-03T21:43:09.119Z,8.00
2017-05-03T21:45:36.881Z,8.00
2017-05-03T21:48:03.876Z,8.10
2017-05-03T21:50:30.935Z,8.20
2017-05-03T21:52:57.931Z,8.20
2017-05-03T21:55:25.678Z,7.90
2017-05-03T21:57:52.710Z,7.80
2017-05-03T22:00:19.742Z,7.80
2017-05-03T22:02:46.743Z,7.90
2017-05-03T22:05:14.059Z,7.80
2017-05-03T22:07:41.572Z,7.80
2017-05-03T22:10:08.689Z,7.70
2017-05-03T22:12:36.480Z,7.70
2017-05-03T22:15:03.483Z,7.50
2017-05-03T22:17:30.523Z,7.20
2017-05-03T22:19:57.559Z,7.00
2017-05-03T22:22:24.576Z,7.10
2017-05-03T22:24:51.588Z,7.20
2017-05-03T22:27:19.354Z,7.20
2017-05-03T22:29:46.344Z,7.30
2017-05-03T22:32:13.362Z,7.40
2017-05-03T22:34:40.426Z,7.40
2017-05-03T22:37:07.423Z,7.40
2017-05-03T22:39:34.445Z,7.10
2017-05-03T22:42:01.537Z,6.80
2017-05-03T22:44:29.277Z,6.70
2017-05-03T22:46:56.269Z,6.60
2017-05-03T22:49:23.576Z,6.70
2017-05-03T22:51:50.584Z,6.70
2017-05-03T22:54:17.580Z,6.70
2017-05-03T22:56:45.373Z,6.70
2017-05-03T22:59:12.394Z,6.80
2017-05-03T23:01:40.155Z,6.80
2017-05-03T23:04:07.192Z,6.90
2017-05-03T23:06:34.181Z,7.00
2017-05-03T23:09:01.176Z,7.00
2017-05-03T23:11:28.225Z,7.00
2017-05-03T23:13:55.235Z,7.00
2017-05-03T23:16:22.227Z,7.20
2017-05-03T23:18:49.255Z,7.10
2017-05-03T23:21:16.287Z,7.00
2017-05-03T23:23:43.299Z,7.00
2017-05-03T23:26:10.368Z,7.00
2017-05-03T23:28:37.369Z,7.00
2017-05-03T23:31:05.119Z,7.00
2017-05-03T23:33:32.134Z,6.90
2017-05-03T23:35:59.177Z,6.90
2017-05-03T23:38:26.176Z,7.00
2017-05-03T23:40:54.037Z,7.00
2017-05-03T23:43:21.794Z,7.10
2017-05-03T23:45:48.787Z,7.10
2017-05-03T23:48:15.848Z,7.10
2017-05-03T23:50:42.876Z,7.00
2017-05-03T23:53:09.872Z,7.00
2017-05-03T23:55:36.918Z,7.00
2017-05-03T23:58:03.903Z,7.00
